Time;durP1;ratioP1;P1;durP2;ratioP2;P2;SDS_P1;SDS_P2;PMS_P1;PMS_P2;Temp;Humidity;BMP_temperature;BMP_pressure;BME280_temperature;BME280_humidity;BME280_pressure;Samples;Min_cycle;Max_cycle;Signal;HPM_P1;HPM_P2
2022/08/08 00:00:11;;;;;;;13.90;10.88;;;;;;;19.96;75.64;100312.50;4735568;30;20044;-84
2022/08/08 00:02:56;;;;;;;18.25;11.80;;;;;;;19.95;75.51;100302.84;4766605;30;20056;-84
2022/08/08 00:05:41;;;;;;;15.05;11.13;;;;;;;19.94;75.25;100304.63;4767554;30;20044;-83
2022/08/08 00:08:24;;;;;;;14.52;12.23;;;;;;;19.95;75.33;100302.84;4767953;30;20048;-83
2022/08/08 00:11:13;;;;;;;16.52;11.95;;;;;;;19.95;75.16;100316.91;4768411;30;20120;-83
2022/08/08 00:13:53;;;;;;;13.27;11.02;;;;;;;19.77;75.05;100278.84;4753222;30;20063;-83
2022/08/08 00:16:28;;;;;;;12.10;9.95;;;;;;;19.68;75.29;100253.66;4748652;30;20585;-83
2022/08/08 00:19:19;;;;;;;14.02;9.30;;;;;;;20.02;75.24;100307.81;4751701;30;20059;-85
2022/08/08 00:21:54;;;;;;;13.82;9.45;;;;;;;20.06;74.97;100305.91;4750975;30;20051;-83
2022/08/08 00:24:27;;;;;;;13.38;9.10;;;;;;;19.82;74.80;100268.13;4750582;30;20048;-83
2022/08/08 00:26:57;;;;;;;13.35;10.32;;;;;;;20.08;74.73;100321.72;4733971;30;20102;-83
2022/08/08 00:29:28;;;;;;;11.57;9.80;;;;;;;20.08;74.65;100319.06;4748214;30;20051;-82
2022/08/08 00:32:03;;;;;;;11.93;8.97;;;;;;;20.07;74.37;100315.53;4726802;30;20047;-82
2022/08/08 00:38:02;;;;;;;12.32;8.88;;;;;;;19.97;74.03;100288.66;4748086;30;20052;-82
2022/08/08 00:40:28;;;;;;;11.68;9.27;;;;;;;19.98;74.29;100285.09;4725324;30;20051;-83
2022/08/08 00:43:22;;;;;;;11.27;8.68;;;;;;;20.11;73.92;100314.50;4734870;30;20147;-84
2022/08/08 00:45:53;;;;;;;12.55;9.00;;;;;;;20.13;74.11;100312.66;4748749;30;20514;-83
2022/08/08 00:48:38;;;;;;;;;;;;;;;20.17;74.08;100316.91;4732768;30;20143;-83
2022/08/08 00:51:13;;;;;;;14.20;9.30;;;;;;;20.06;73.79;100302.41;4750940;30;19922;-82
2022/08/08 00:53:42;;;;;;;11.50;9.38;;;;;;;20.20;73.63;100320.31;4750973;30;20509;-82
2022/08/08 00:56:42;;;;;;;12.57;9.38;;;;;;;20.20;73.44;100322.97;4750123;30;20597;-83
2022/08/08 00:59:15;;;;;;;13.25;8.95;;;;;;;20.21;73.46;100319.41;4753188;30;20048;-82
2022/08/08 01:02:17;;;;;;;12.48;9.18;;;;;;;19.93;73.79;100273.84;4736465;30;20090;-80
2022/08/08 01:05:07;;;;;;;;;;;;;;;20.23;73.59;100315.78;4749111;30;20131;-83
2022/08/08 01:08:31;;;;;;;14.43;10.83;;;;;;;20.23;73.31;100313.16;4735523;30;19929;-82
2022/08/08 01:11:13;;;;;;;12.85;10.30;;;;;;;20.15;73.37;100288.81;4693843;30;20546;-84
2022/08/08 01:14:31;;;;;;;11.80;9.77;;;;;;;20.28;73.42;100312.94;4666648;30;20065;-83
2022/08/08 01:17:31;;;;;;;15.30;10.00;;;;;;;20.26;73.39;100315.66;4729379;30;20060;-83
2022/08/08 01:20:37;;;;;;;11.85;9.85;;;;;;;20.22;73.56;100316.72;4750263;30;20047;-82
2022/08/08 01:23:39;;;;;;;11.32;10.13;;;;;;;20.17;73.47;100324.84;4717423;30;20740;-83
2022/08/08 01:26:21;;;;;;;12.90;10.15;;;;;;;20.14;73.11;100322.31;4731110;30;20070;-83
2022/08/08 01:29:08;;;;;;;15.77;11.13;;;;;;;20.10;73.50;100314.56;4744256;30;20055;-83
2022/08/08 01:32:13;;;;;;;13.63;10.75;;;;;;;20.08;73.39;100316.44;4749241;30;20052;-83
2022/08/08 01:35:03;;;;;;;;;;;;;;;20.07;73.61;100315.53;4756078;30;20052;-84
2022/08/08 01:37:55;;;;;;;14.75;12.27;;;;;;;20.07;73.60;100315.53;4746741;30;19940;-81
2022/08/08 01:40:36;;;;;;;12.63;10.43;;;;;;;19.76;73.33;100269.19;4752533;30;20059;-83
2022/08/08 01:43:43;;;;;;;14.02;11.40;;;;;;;20.02;73.42;100317.50;4751091;30;20039;-83
2022/08/08 01:46:39;;;;;;;14.55;12.40;;;;;;;19.81;73.21;100283.09;4734148;30;20055;-83
2022/08/08 01:49:46;;;;;;;16.75;12.82;;;;;;;19.84;73.50;100290.88;4762312;30;20075;-82
2022/08/08 01:52:27;;;;;;;17.48;12.68;;;;;;;19.86;73.35;100289.06;4708026;30;20060;-83
2022/08/08 01:55:12;;;;;;;17.80;13.15;;;;;;;20.05;73.51;100311.25;4746901;30;20049;-82
2022/08/08 01:57:59;;;;;;;16.10;13.38;;;;;;;20.01;73.44;100318.44;4767103;30;20036;-81
2022/08/08 02:00:48;;;;;;;23.45;14.88;;;;;;;20.00;73.53;100311.44;4753314;30;20051;-82
2022/08/08 02:03:42;;;;;;;15.43;13.15;;;;;;;19.98;73.70;100318.53;4754785;30;20033;-81
2022/08/08 02:06:37;;;;;;;17.27;14.30;;;;;;;19.97;73.65;100312.41;4768282;30;20031;-82
2022/08/08 02:09:10;;;;;;;15.15;13.55;;;;;;;20.00;73.71;100316.72;4751762;30;20067;-83
2022/08/08 02:11:43;;;;;;;13.95;12.25;;;;;;;20.02;73.63;100314.88;4738334;30;20112;-82
2022/08/08 02:14:39;;;;;;;16.40;13.60;;;;;;;20.03;73.64;100316.59;4736448;30;20044;-81
2022/08/08 02:17:51;;;;;;;15.23;12.90;;;;;;;20.01;73.65;100311.38;4749151;30;20079;-82
2022/08/08 02:22:30;;;;;;;16.70;13.00;;;;;;;19.99;73.53;100318.50;4700122;30;20172;-82
2022/08/08 02:23:43;;;;;;;17.20;12.88;;;;;;;19.60;73.72;100255.78;4714538;30;20052;-82
2022/08/08 02:26:33;;;;;;;13.63;10.98;;;;;;;19.88;73.37;100301.38;4710893;30;20048;-81
2022/08/08 02:29:26;;;;;;;18.45;11.77;;;;;;;20.00;73.73;100316.72;4701215;30;20613;-82
2022/08/08 02:32:35;;;;;;;13.30;11.50;;;;;;;20.04;73.73;100322.75;4730139;30;20082;-82
2022/08/08 02:35:01;;;;;;;14.85;11.93;;;;;;;20.07;73.76;100318.19;4707507;30;20599;-81
2022/08/08 02:38:11;;;;;;;14.73;11.00;;;;;;;19.92;73.55;100298.53;4732441;30;20063;-82
2022/08/08 02:41:02;;;;;;;12.98;10.20;;;;;;;20.11;73.58;100322.44;4729878;30;20113;-83
2022/08/08 02:43:48;;;;;;;15.18;10.82;;;;;;;20.08;73.16;100319.06;4728479;30;20052;-82
2022/08/08 02:46:42;;;;;;;13.50;11.13;;;;;;;19.71;73.27;100256.19;4709128;30;20052;-83
2022/08/08 02:49:44;;;;;;;12.68;10.75;;;;;;;19.95;73.55;100303.69;4736667;30;20134;-80
2022/08/08 02:52:17;;;;;;;14.35;10.82;;;;;;;20.13;73.23;100322.34;4725994;30;20068;-79
2022/08/08 02:55:28;;;;;;;15.40;11.80;;;;;;;20.06;73.10;100310.34;4721482;30;20061;-81
2022/08/08 02:58:09;;;;;;;15.73;10.90;;;;;;;20.27;72.99;100333.25;4725435;30;20048;-81
2022/08/08 03:00:48;;;;;;;13.43;11.05;;;;;;;20.35;73.20;100337.34;4719308;30;20052;-81
2022/08/08 03:03:33;;;;;;;14.02;11.27;;;;;;;20.38;72.94;100337.22;4734715;30;20053;-79
2022/08/08 03:06:05;;;;;;;14.50;10.55;;;;;;;20.43;72.63;100343.19;4704753;30;20075;-80
2022/08/08 03:09:01;;;;;;;14.45;11.40;;;;;;;20.47;72.95;100342.13;4718924;30;20068;-80
2022/08/08 03:11:48;;;;;;;12.82;10.68;;;;;;;20.49;72.78;100342.94;4720125;30;20060;-81
2022/08/08 03:14:35;;;;;;;16.85;11.75;;;;;;;20.57;72.73;100347.88;4704045;30;20155;-82
2022/08/08 03:17:14;;;;;;;13.05;11.65;;;;;;;20.59;72.54;100353.97;4730327;30;20522;-81
2022/08/08 03:22:42;;;;;;;16.75;12.63;;;;;;;20.53;72.28;100356.88;4732786;30;20048;-82
2022/08/08 03:25:21;;;;;;;14.35;12.85;;;;;;;20.37;72.11;100343.41;4728804;30;20044;-85
2022/08/08 03:27:55;;;;;;;17.02;12.93;;;;;;;20.21;72.45;100330.84;4697843;30;20135;-82
2022/08/08 03:30:22;;;;;;;;;;;;;;;20.43;72.53;100367.81;4713608;30;20087;-81
2022/08/08 03:35:39;;;;;;;14.82;11.98;;;;;;;20.52;72.11;100361.31;4708763;30;20057;-81
2022/08/08 03:38:06;;;;;;;13.38;11.68;;;;;;;20.34;72.35;100317.13;4720300;30;20457;-82
2022/08/08 03:40:33;;;;;;;15.85;13.35;;;;;;;20.55;71.83;100344.44;4729252;30;20099;-82
2022/08/08 03:43:09;;;;;;;16.52;13.57;;;;;;;20.73;71.87;100370.09;4728945;30;20053;-79
2022/08/08 03:45:38;;;;;;;16.90;13.77;;;;;;;20.84;72.04;100374.97;4690099;30;20084;-80
2022/08/08 03:48:11;;;;;;;19.10;13.95;;;;;;;20.72;71.91;100331.38;4736749;30;20059;-85
2022/08/08 03:50:45;;;;;;;16.92;13.93;;;;;;;21.18;71.55;100381.47;4752291;30;20048;-79
2022/08/08 03:53:17;;;;;;;16.60;13.25;;;;;;;21.13;71.43;100361.41;4712668;30;20044;-81
2022/08/08 03:55:48;;;;;;;15.52;12.38;;;;;;;21.26;71.11;100365.25;4730057;30;20174;-81
2022/08/08 03:58:22;;;;;;;13.55;12.15;;;;;;;21.41;70.86;100368.97;4730829;30;20694;-82
2022/08/08 04:00:57;;;;;;;15.50;12.60;;;;;;;21.51;70.76;100346.44;4745098;30;20104;-84
2022/08/08 04:03:40;;;;;;;14.90;12.40;;;;;;;21.80;70.28;100336.34;4730531;30;20124;-83
2022/08/08 04:06:07;;;;;;;15.00;12.77;;;;;;;22.27;69.73;100353.50;4733091;30;20048;-81
2022/08/08 04:08:36;;;;;;;16.35;12.88;;;;;;;22.26;69.45;100333.25;4730141;30;20052;-83
2022/08/08 04:11:11;;;;;;;18.58;11.75;;;;;;;22.67;68.87;100368.38;4731177;30;20044;-81
2022/08/08 04:13:38;;;;;;;13.35;11.50;;;;;;;22.78;68.21;100363.41;4730154;30;20296;-81
2022/08/08 04:16:04;;;;;;;13.43;11.30;;;;;;;22.79;67.51;100356.31;4745963;30;20047;-82
2022/08/08 04:18:35;;;;;;;13.38;11.90;;;;;;;23.06;67.62;100375.22;4746390;30;20192;-81
2022/08/08 04:21:02;;;;;;;13.68;12.20;;;;;;;23.14;66.99;100367.75;4731347;30;20071;-83
2022/08/08 04:23:31;;;;;;;16.73;12.27;;;;;;;23.35;66.97;100386.16;4748515;30;20052;-82
2022/08/08 04:25:59;;;;;;;13.85;11.18;;;;;;;23.24;66.21;100333.63;4740111;30;20048;-82
2022/08/08 04:28:26;;;;;;;14.45;10.20;;;;;;;23.46;65.90;100372.31;4740619;30;20048;-83
2022/08/08 04:30:53;;;;;;;14.95;13.20;;;;;;;23.23;65.73;100337.22;4713425;30;20089;-81
2022/08/08 04:33:19;;;;;;;16.75;13.20;;;;;;;23.33;65.74;100326.13;4739347;30;20052;-81
2022/08/08 04:35:45;;;;;;;16.50;13.30;;;;;;;23.14;65.17;100297.91;4753866;30;20051;-82
2022/08/08 04:38:15;;;;;;;12.45;11.07;;;;;;;23.37;64.85;100327.69;4748265;30;20147;-81
2022/08/08 04:40:43;;;;;;;14.13;12.30;;;;;;;23.68;64.33;100369.34;4749336;30;20587;-80
2022/08/08 04:43:10;;;;;;;17.67;13.35;;;;;;;23.65;63.94;100352.72;4747007;30;20048;-82
2022/08/08 04:45:41;;;;;;;13.38;11.52;;;;;;;23.90;64.00;100386.75;4749283;30;20048;-81
2022/08/08 04:48:07;;;;;;;15.75;12.73;;;;;;;23.85;63.15;100383.50;4738550;30;20052;-84
2022/08/08 04:50:36;;;;;;;16.38;11.77;;;;;;;23.89;63.40;100395.69;4754955;30;20143;-84
2022/08/08 04:53:03;;;;;;;16.38;11.57;;;;;;;23.74;62.81;100379.63;4754196;30;20131;-81
2022/08/08 04:55:29;;;;;;;14.73;11.90;;;;;;;23.75;62.82;100388.47;4753292;30;20269;-83
2022/08/08 04:58:02;;;;;;;13.68;10.90;;;;;;;23.76;62.68;100411.44;4738979;30;20059;-82
2022/08/08 05:00:29;;;;;;;13.70;9.52;;;;;;;23.61;62.45;100390.06;4711367;30;20052;-81
2022/08/08 05:02:55;;;;;;;11.80;9.75;;;;;;;23.34;62.47;100333.16;4738359;30;20048;-82
2022/08/08 05:05:22;;;;;;;12.18;9.45;;;;;;;23.79;62.50;100416.59;4735932;30;20036;-82
2022/08/08 05:07:48;;;;;;;14.30;9.65;;;;;;;23.59;62.15;100377.81;4747262;30;20473;-81
2022/08/08 05:10:15;;;;;;;11.60;9.95;;;;;;;23.62;62.34;100378.50;4733112;30;20675;-81
2022/08/08 05:12:41;;;;;;;13.88;10.20;;;;;;;23.72;62.27;100389.47;4729356;30;20161;-81
2022/08/08 05:15:08;;;;;;;11.00;8.93;;;;;;;23.99;62.50;100423.47;4749641;30;20509;-83
2022/08/08 05:17:34;;;;;;;13.30;10.23;;;;;;;23.80;61.93;100388.19;4756407;30;20516;-81
2022/08/08 05:20:00;;;;;;;11.65;10.45;;;;;;;23.88;61.50;100421.38;4741713;30;20032;-79
2022/08/08 05:22:30;;;;;;;10.95;9.02;;;;;;;23.69;61.74;100405.59;4758047;30;20036;-81
2022/08/08 05:24:57;;;;;;;13.10;9.50;;;;;;;23.68;61.68;100425.13;4772399;30;20033;-81
2022/08/08 05:27:24;;;;;;;12.60;9.15;;;;;;;23.43;61.71;100405.19;4727474;30;20156;-81
2022/08/08 05:29:51;;;;;;;11.68;9.02;;;;;;;23.53;62.01;100436.56;4728404;30;20051;-81
2022/08/08 05:32:20;;;;;;;11.80;9.18;;;;;;;23.36;62.01;100406.47;4748311;30;20079;-82
2022/08/08 05:34:49;;;;;;;14.10;9.20;;;;;;;23.38;62.18;100403.75;4732846;30;20055;-82
2022/08/08 05:37:22;;;;;;;11.38;8.75;;;;;;;23.66;62.09;100447.38;4747278;30;20052;-82
2022/08/08 05:39:53;;;;;;;12.27;8.82;;;;;;;23.59;61.86;100436.25;4754482;30;20072;-80
2022/08/08 05:42:52;;;;;;;11.45;9.15;;;;;;;23.67;61.88;100446.44;4748108;30;20090;-81
2022/08/08 05:45:21;;;;;;;10.20;8.77;;;;;;;23.64;61.43;100428.00;4703447;30;20060;-81
2022/08/08 05:47:48;;;;;;;10.60;8.75;;;;;;;23.64;61.41;100426.22;4689153;30;20059;-82
2022/08/08 05:50:17;;;;;;;12.07;8.88;;;;;;;23.77;61.27;100445.88;4748911;30;20086;-81
2022/08/08 05:52:43;;;;;;;11.35;8.85;;;;;;;23.71;61.36;100414.34;4731712;30;20044;-80
2022/08/08 05:55:10;;;;;;;10.80;8.98;;;;;;;23.98;61.27;100435.03;4753566;30;20059;-81
2022/08/08 05:57:39;;;;;;;10.75;8.40;;;;;;;24.20;60.92;100448.00;4753119;30;20059;-82
2022/08/08 06:00:09;;;;;;;10.93;8.55;;;;;;;24.32;60.75;100438.50;4737086;30;20052;-80
2022/08/08 06:03:09;;;;;;;9.13;7.38;;;;;;;24.60;60.08;100447.56;4723503;30;20048;-81
2022/08/08 06:05:55;;;;;;;10.15;8.25;;;;;;;24.88;60.13;100432.66;4734585;30;20044;-80
2022/08/08 06:08:35;;;;;;;11.52;8.85;;;;;;;25.22;59.05;100414.69;4752876;30;20048;-80
2022/08/08 06:11:06;;;;;;;10.95;9.60;;;;;;;25.90;58.07;100449.63;4738682;30;20134;-82
2022/08/08 06:13:34;;;;;;;12.18;10.15;;;;;;;26.54;57.57;100450.94;4731761;30;20139;-82
2022/08/08 06:16:00;;;;;;;11.63;10.48;;;;;;;27.04;56.53;100449.38;4747516;30;20539;-80
2022/08/08 06:18:43;;;;;;;11.20;9.80;;;;;;;27.61;55.29;100449.13;4720285;30;20060;-83
2022/08/08 06:21:10;;;;;;;11.73;10.52;;;;;;;27.79;53.78;100423.78;4740798;30;20048;-83
2022/08/08 06:23:37;;;;;;;11.27;9.70;;;;;;;29.27;53.05;100445.91;4740012;30;20112;-85
2022/08/08 06:26:11;;;;;;;12.30;11.10;;;;;;;30.29;50.62;100422.72;4750909;30;20078;-84
2022/08/08 06:29:10;;;;;;;12.43;11.13;;;;;;;30.56;47.62;100445.63;4756167;30;20059;-83
2022/08/08 06:31:42;;;;;;;12.32;11.02;;;;;;;30.33;47.22;100451.03;4731302;30;20051;-82
2022/08/08 06:34:17;;;;;;;13.60;11.82;;;;;;;30.32;46.06;100446.63;4767314;30;20043;-81
2022/08/08 06:36:50;;;;;;;14.18;12.60;;;;;;;29.98;45.87;100411.84;4761925;30;20052;-84
2022/08/08 06:39:19;;;;;;;15.25;12.60;;;;;;;29.67;45.76;100411.59;4739363;30;20070;-85
2022/08/08 06:41:56;;;;;;;14.88;12.38;;;;;;;29.98;44.85;100458.28;4740683;30;20047;-84
2022/08/08 06:44:26;;;;;;;13.80;10.75;;;;;;;29.81;46.03;100440.00;4727218;30;20052;-85
2022/08/08 06:46:57;;;;;;;11.68;10.43;;;;;;;29.90;45.33;100460.72;4724787;30;20110;-82
2022/08/08 06:49:26;;;;;;;12.98;10.05;;;;;;;29.78;45.73;100440.22;4752140;30;20151;-84
2022/08/08 06:51:53;;;;;;;10.52;8.88;;;;;;;30.34;45.04;100461.63;4736818;30;20044;-83
2022/08/08 06:54:26;;;;;;;11.05;9.70;;;;;;;31.01;44.06;100466.03;4770689;30;20088;-83
2022/08/08 06:56:58;;;;;;;10.43;9.32;;;;;;;30.48;42.54;100400.59;4755140;30;20052;-81
2022/08/08 06:59:45;;;;;;;13.20;9.98;;;;;;;30.25;43.05;100418.59;4728750;30;20048;-82
2022/08/08 07:02:35;;;;;;;12.07;10.02;;;;;;;29.91;43.50;100412.31;4714046;30;20084;-84
2022/08/08 07:05:13;;;;;;;12.57;11.23;;;;;;;30.08;43.39;100454.88;4730587;30;20052;-87
2022/08/08 07:07:59;;;;;;;12.95;10.00;;;;;;;30.49;42.97;100451.47;4755680;30;20059;-85
2022/08/08 07:10:34;;;;;;;12.85;10.23;;;;;;;30.46;42.47;100398.03;4749812;30;20143;-84
2022/08/08 07:13:16;;;;;;;11.90;10.55;;;;;;;30.56;42.47;100418.78;4729223;30;20055;-80
2022/08/08 07:16:11;;;;;;;10.52;9.18;;;;;;;30.87;42.38;100433.13;4740962;30;20048;-82
2022/08/08 07:18:49;;;;;;;10.20;9.10;;;;;;;31.19;41.62;100469.88;4725043;30;20081;-86
2022/08/08 07:21:27;;;;;;;11.90;10.00;;;;;;;31.05;41.08;100448.66;4721947;30;20052;-85
2022/08/08 07:24:06;;;;;;;11.73;10.15;;;;;;;31.14;40.46;100429.13;4720274;30;20048;-83
2022/08/08 07:26:54;;;;;;;11.20;10.10;;;;;;;31.63;40.30;100458.09;4718374;30;20051;-82
2022/08/08 07:30:06;;;;;;;12.25;10.35;;;;;;;32.97;39.61;100428.16;4726247;30;20695;-84
2022/08/08 07:32:40;;;;;;;12.02;10.82;;;;;;;32.99;38.95;100436.94;4723550;30;20047;-84
2022/08/08 07:35:16;;;;;;;12.52;11.02;;;;;;;32.70;38.08;100470.97;4725286;30;20064;-87
2022/08/08 07:38:13;;;;;;;13.52;12.13;;;;;;;31.55;39.07;100434.56;4737012;30;20051;-84
2022/08/08 07:40:50;;;;;;;13.85;11.05;;;;;;;30.93;40.01;100421.00;4735739;30;20044;-84
2022/08/08 07:43:20;;;;;;;13.48;11.93;;;;;;;30.61;40.84;100471.09;4752806;30;20450;-85
2022/08/08 07:45:51;;;;;;;14.75;10.80;;;;;;;30.21;40.88;100452.88;4753403;30;20501;-87
2022/08/08 07:48:20;;;;;;;17.50;11.10;;;;;;;29.87;41.46;100442.19;4745314;30;20064;-83
2022/08/08 07:50:51;;;;;;;18.85;11.68;;;;;;;29.56;41.18;100412.47;4732778;30;20058;-85
2022/08/08 07:53:37;;;;;;;;;;;;;;;29.87;41.93;100474.38;4706962;30;20168;-84
2022/08/08 07:56:08;;;;;;;14.38;11.38;;;;;;;29.91;41.80;100457.03;4711765;30;19926;-86
2022/08/08 07:58:41;;;;;;;16.27;12.50;;;;;;;30.72;40.99;100462.13;4697255;30;20103;-86
2022/08/08 08:01:18;;;;;;;22.10;19.17;;;;;;;30.14;40.42;100395.31;4708345;30;20071;-87
2022/08/08 08:03:49;;;;;;;17.98;16.20;;;;;;;30.46;40.70;100477.72;4715705;30;20056;-84
2022/08/08 08:06:19;;;;;;;13.85;11.07;;;;;;;30.61;40.89;100475.63;4719534;30;20056;-84
2022/08/08 08:09:12;;;;;;;15.82;11.65;;;;;;;31.46;39.48;100471.16;4721831;30;20052;-86
2022/08/08 08:11:47;;;;;;;13.27;11.02;;;;;;;33.07;38.06;100466.72;4710729;30;20049;-83
2022/08/08 08:14:46;;;;;;;11.70;10.55;;;;;;;33.70;36.62;100434.75;4737313;30;20044;-81
2022/08/08 08:17:18;;;;;;;17.17;14.07;;;;;;;34.31;35.08;100416.25;4733152;30;20044;-82
2022/08/08 08:19:49;;;;;;;24.52;22.05;;;;;;;36.33;34.19;100448.56;4726157;30;20053;-83
2022/08/08 08:22:17;;;;;;;12.40;11.18;;;;;;;37.31;32.16;100439.78;4739064;30;20033;-84
2022/08/08 08:24:52;;;;;;;11.05;9.95;;;;;;;37.17;30.93;100463.88;4740512;30;20106;-85
2022/08/08 08:27:21;;;;;;;18.70;16.88;;;;;;;36.94;30.99;100480.00;4726153;30;20058;-83
2022/08/08 08:30:10;;;;;;;12.95;10.32;;;;;;;37.15;31.27;100473.19;4727150;30;20028;-86
2022/08/08 08:32:58;;;;;;;13.23;10.15;;;;;;;37.49;29.30;100415.16;4720874;30;20208;-88
2022/08/08 08:35:53;;;;;;;19.17;17.27;;;;;;;37.50;29.71;100471.97;4722200;30;20148;-85
2022/08/08 08:38:33;;;;;;;22.88;19.40;;;;;;;36.43;30.44;100426.75;4708174;30;20052;-85
2022/08/08 08:41:31;;;;;;;29.60;26.60;;;;;;;36.10;30.46;100467.31;4718878;30;20188;-86
2022/08/08 08:44:06;;;;;;;17.38;15.57;;;;;;;35.53;30.73;100440.84;4722025;30;20048;-85
2022/08/08 08:47:26;;;;;;;18.55;13.63;;;;;;;35.02;31.49;100433.41;4736721;30;20060;-86
2022/08/08 08:50:41;;;;;;;18.85;15.95;;;;;;;34.80;31.52;100486.09;4744821;30;20123;-83
2022/08/08 08:53:24;;;;;;;42.40;38.33;;;;;;;34.18;32.62;100440.94;4734346;30;20060;-85
2022/08/08 08:56:41;;;;;;;22.92;20.45;;;;;;;34.35;31.83;100423.03;4753851;30;20089;-84
2022/08/08 08:59:21;;;;;;;15.18;9.88;;;;;;;34.71;31.98;100474.38;4754735;30;20051;-85
2022/08/08 09:01:54;;;;;;;11.88;10.43;;;;;;;34.16;32.18;100465.34;4740415;30;20024;-86
2022/08/08 09:04:26;;;;;;;13.85;10.85;;;;;;;34.13;33.14;100472.91;4753679;30;20047;-85
2022/08/08 09:06:57;;;;;;;17.90;14.40;;;;;;;34.00;32.33;100432.78;4763803;30;20052;-85
2022/08/08 09:09:29;;;;;;;33.80;27.58;;;;;;;34.30;32.82;100452.34;4737214;30;20044;-87
2022/08/08 09:12:25;;;;;;;18.00;15.95;;;;;;;34.15;32.68;100423.16;4742313;30;20048;-87
2022/08/08 09:15:06;;;;;;;17.23;14.27;;;;;;;34.09;32.29;100413.84;4728565;30;20139;-88
2022/08/08 09:17:46;;;;;;;17.00;12.70;;;;;;;34.04;32.22;100424.22;4753438;30;20064;-87
2022/08/08 09:20:20;;;;;;;14.07;11.38;;;;;;;34.03;31.65;100451.38;4725052;30;20048;-86
2022/08/08 09:22:46;;;;;;;18.55;16.75;;;;;;;33.25;32.81;100398.59;4745681;30;20071;-88
2022/08/08 09:25:14;;;;;;;16.77;14.73;;;;;;;32.95;33.39;100405.91;4736933;30;20102;-85
2022/08/08 09:27:43;;;;;;;12.25;8.98;;;;;;;33.14;33.76;100475.91;4753090;30;20529;-86
2022/08/08 09:30:13;;;;;;;13.73;9.05;;;;;;;32.89;33.01;100434.28;4739246;30;20051;-84
2022/08/08 09:32:56;;;;;;;16.98;9.90;;;;;;;33.05;34.42;100480.34;4738990;30;20044;-85
2022/08/08 09:35:29;;;;;;;30.92;27.55;;;;;;;32.94;34.30;100485.03;4737883;30;20192;-87
2022/08/08 09:38:01;;;;;;;12.90;9.85;;;;;;;32.75;33.88;100424.75;4717886;30;20052;-86
2022/08/08 09:40:33;;;;;;;13.32;9.63;;;;;;;32.73;34.35;100476.09;4750420;30;20051;-85
2022/08/08 09:43:29;;;;;;;21.65;16.98;;;;;;;32.65;34.42;100408.59;4741243;30;20509;-87
2022/08/08 09:45:59;;;;;;;17.23;12.85;;;;;;;33.06;34.11;100432.69;4719677;30;21541;-83
2022/08/08 09:48:30;;;;;;;22.45;18.23;;;;;;;33.37;33.56;100459.44;4751696;30;20063;-86
2022/08/08 09:50:58;;;;;;;12.95;8.55;;;;;;;33.26;33.67;100470.38;4750056;30;21236;-83
2022/08/08 09:53:41;;;;;;;18.10;9.27;;;;;;;32.62;33.96;100419.66;4733419;30;20048;-85
2022/08/08 09:56:11;;;;;;;18.02;15.48;;;;;;;33.31;34.10;100478.88;4719069;30;20051;-88
2022/08/08 09:58:39;;;;;;;19.33;16.42;;;;;;;35.19;32.90;100466.84;4736235;30;20040;-86
2022/08/08 10:01:10;;;;;;;12.77;9.23;;;;;;;36.77;30.12;100417.66;4771869;30;20040;-85
2022/08/08 10:03:37;;;;;;;;;;;;;;;38.16;28.72;100462.72;4754313;30;20036;-88
2022/08/08 10:06:18;;;;;;;15.65;13.18;;;;;;;38.10;28.23;100439.81;4752070;30;19921;-88
2022/08/08 10:08:49;;;;;;;12.73;9.60;;;;;;;37.59;27.94;100466.53;4736442;30;20086;-85
2022/08/08 10:11:17;;;;;;;13.13;11.63;;;;;;;36.92;27.89;100444.06;4737253;30;22114;-85
2022/08/08 10:13:55;;;;;;;15.48;12.50;;;;;;;36.51;28.09;100468.44;4752566;30;20059;-84
2022/08/08 10:16:22;;;;;;;15.90;14.15;;;;;;;35.77;29.16;100469.03;4741170;30;20509;-86
2022/08/08 10:18:49;;;;;;;13.73;11.90;;;;;;;35.09;29.86;100434.50;4737564;30;20083;-84
2022/08/08 10:21:17;;;;;;;10.80;8.40;;;;;;;34.79;30.44;100474.44;4759945;30;20143;-84
2022/08/08 10:24:00;;;;;;;15.13;9.10;;;;;;;34.27;30.80;100483.19;4750685;30;20517;-86
2022/08/08 10:27:05;;;;;;;12.52;8.68;;;;;;;33.35;32.04;100437.13;4736355;30;20580;-85
2022/08/08 10:29:39;;;;;;;14.73;8.85;;;;;;;33.27;32.86;100485.56;4687440;30;20058;-84
2022/08/08 10:34:59;;;;;;;9.18;8.18;;;;;;;32.64;33.11;100439.22;4738661;30;20059;-84
2022/08/08 10:37:27;;;;;;;11.13;8.60;;;;;;;33.04;33.25;100462.47;4743556;30;20074;-85
2022/08/08 10:39:55;;;;;;;10.32;7.65;;;;;;;32.79;32.98;100431.56;4756771;30;20513;-82
2022/08/08 10:42:23;;;;;;;9.20;7.88;;;;;;;32.55;32.85;100442.78;4755586;30;20097;-87
2022/08/08 10:44:59;;;;;;;8.90;7.70;;;;;;;32.15;33.41;100464.22;4725341;30;20405;-85
2022/08/08 10:47:25;;;;;;;10.75;7.68;;;;;;;31.80;34.36;100422.50;4742537;30;20052;-83
2022/08/08 10:49:54;;;;;;;10.88;8.32;;;;;;;31.91;34.37;100463.72;4757871;30;20083;-85
2022/08/08 10:52:37;;;;;;;9.52;8.05;;;;;;;31.73;35.02;100471.59;4749886;30;20052;-85
2022/08/08 10:55:12;;;;;;;13.07;8.60;;;;;;;31.49;35.12;100478.94;4735945;30;20055;-84
2022/08/08 10:57:43;;;;;;;12.95;8.60;;;;;;;31.58;35.55;100477.28;4732785;30;20549;-85
2022/08/08 11:00:21;;;;;;;10.05;8.43;;;;;;;31.74;35.28;100431.13;4740127;30;20081;-83
2022/08/08 11:02:51;;;;;;;10.57;7.93;;;;;;;31.88;34.70;100399.47;4704047;30;20109;-86
2022/08/08 11:05:18;;;;;;;10.15;8.02;;;;;;;32.33;34.52;100457.34;4749459;30;20047;-86
2022/08/08 11:07:50;;;;;;;12.63;8.48;;;;;;;32.02;33.95;100401.75;4758513;30;20107;-85
2022/08/08 11:10:38;;;;;;;10.27;7.57;;;;;;;32.20;34.12;100403.75;4748717;30;20051;-84
2022/08/08 11:13:07;;;;;;;9.15;7.78;;;;;;;32.05;33.87;100389.84;4743991;30;20071;-85
2022/08/08 11:16:38;;;;;;;12.25;8.50;;;;;;;31.92;34.45;100395.47;4724543;30;20056;-86
2022/08/08 11:19:25;;;;;;;9.00;6.97;;;;;;;32.09;34.59;100440.56;4733682;30;20051;-84
2022/08/08 11:22:58;;;;;;;11.88;7.95;;;;;;;32.19;34.61;100445.09;4734265;30;20079;-83
2022/08/08 11:25:28;;;;;;;8.30;7.60;;;;;;;31.83;35.22;100438.38;4674392;30;20636;-85
2022/08/08 11:27:55;;;;;;;12.00;7.80;;;;;;;31.50;35.49;100461.00;4679608;30;20486;-88
2022/08/08 11:30:24;;;;;;;8.07;7.28;;;;;;;31.33;36.12;100465.16;4719651;30;20075;-87
2022/08/08 11:32:53;;;;;;;9.52;8.23;;;;;;;31.02;36.82;100435.50;4761207;30;20055;-86
2022/08/08 11:35:21;;;;;;;9.07;7.28;;;;;;;31.17;36.29;100465.59;4753760;30;20040;-86
2022/08/08 11:37:48;;;;;;;8.40;6.80;;;;;;;30.98;36.94;100466.31;4755772;30;20060;-86
2022/08/08 11:40:15;;;;;;;11.05;7.75;;;;;;;30.79;37.18;100474.09;4736806;30;20044;-83
2022/08/08 11:42:42;;;;;;;10.18;7.28;;;;;;;30.41;37.76;100455.75;4750901;30;20048;-86
2022/08/08 11:45:10;;;;;;;7.88;7.13;;;;;;;30.21;37.92;100439.47;4737621;30;20054;-84
2022/08/08 11:47:38;;;;;;;10.15;7.35;;;;;;;30.28;38.62;100451.41;4750647;30;20585;-84
2022/08/08 11:50:10;;;;;;;12.88;7.72;;;;;;;30.41;38.44;100448.56;4717547;30;20553;-83
2022/08/08 11:52:37;;;;;;;15.10;11.15;;;;;;;30.42;38.16;100482.50;4752285;30;20114;-83
2022/08/08 11:55:25;;;;;;;15.10;10.30;;;;;;;30.46;38.20;100430.22;4735027;30;20612;-84
2022/08/08 11:58:11;;;;;;;11.98;8.40;;;;;;;30.80;38.07;100469.53;4758165;30;20099;-85
2022/08/08 12:00:52;;;;;;;9.15;6.95;;;;;;;30.84;37.35;100435.25;4733190;30;20040;-84
2022/08/08 12:03:19;;;;;;;10.43;7.50;;;;;;;31.05;37.07;100460.28;4733931;30;20059;-84
2022/08/08 12:05:51;;;;;;;7.70;7.00;;;;;;;30.60;37.38;100407.63;4746695;30;20048;-79
2022/08/08 12:08:32;;;;;;;7.55;6.70;;;;;;;30.15;37.88;100383.63;4718247;30;20048;-84
2022/08/08 12:11:14;;;;;;;9.20;6.82;;;;;;;30.39;37.61;100458.56;4751249;30;20040;-84
2022/08/08 12:13:41;;;;;;;8.60;6.40;;;;;;;29.83;38.12;100420.09;4740755;30;20060;-83
2022/08/08 12:16:10;;;;;;;7.65;6.60;;;;;;;29.72;38.76;100444.28;4753252;30;20101;-85